sensor_id;sensor_type;location;lat;lon;timestamp;pressure;altitude;pressure_sealevel;temperature;humidity
17254;BME280;32542;52.832;13.816;2023-08-21T00:00:41;102122.19;;;26.46;57.43
17254;BME280;32542;52.832;13.816;2023-08-21T00:03:44;102138.31;;;26.46;57.46
17254;BME280;32542;52.832;13.816;2023-08-21T00:06:47;102127.56;;;26.46;57.29
17254;BME280;32542;52.832;13.816;2023-08-21T00:09:50;102123.19;;;26.44;57.47
17254;BME280;32542;52.832;13.816;2023-08-21T00:12:53;102120.50;;;26.44;57.42
17254;BME280;32542;52.832;13.816;2023-08-21T00:15:58;102112.44;;;26.44;57.48
17254;BME280;32542;52.832;13.816;2023-08-21T00:19:01;102106.38;;;26.40;57.15
17254;BME280;32542;52.832;13.816;2023-08-21T00:22:04;102109.91;;;26.41;57.38
17254;BME280;32542;52.832;13.816;2023-08-21T00:25:07;102102.91;;;26.38;57.42
17254;BME280;32542;52.832;13.816;2023-08-21T00:28:10;102094.84;;;26.38;57.14
17254;BME280;32542;52.832;13.816;2023-08-21T00:31:15;102098.44;;;26.37;57.25
17254;BME280;32542;52.832;13.816;2023-08-21T00:34:18;102101.13;;;26.37;57.33
17254;BME280;32542;52.832;13.816;2023-08-21T00:37:21;102106.50;;;26.37;57.08
17254;BME280;32542;52.832;13.816;2023-08-21T00:40:24;102104.75;;;26.36;57.20
17254;BME280;32542;52.832;13.816;2023-08-21T00:43:26;102111.09;;;26.35;57.03
17254;BME280;32542;52.832;13.816;2023-08-21T00:46:31;102107.63;;;26.33;57.02
17254;BME280;32542;52.832;13.816;2023-08-21T00:49:34;102107.69;;;26.32;57.13
17254;BME280;32542;52.832;13.816;2023-08-21T00:52:39;102105.84;;;26.32;57.14
17254;BME280;32542;52.832;13.816;2023-08-21T00:55:43;102105.06;;;26.30;57.15
17254;BME280;32542;52.832;13.816;2023-08-21T00:58:46;102105.94;;;26.30;57.08
17254;BME280;32542;52.832;13.816;2023-08-21T01:01:51;102112.34;;;26.28;56.90
17254;BME280;32542;52.832;13.816;2023-08-21T01:04:54;102109.72;;;26.26;57.06
17254;BME280;32542;52.832;13.816;2023-08-21T01:08:00;102110.63;;;26.27;56.96
17254;BME280;32542;52.832;13.816;2023-08-21T01:11:09;102107.97;;;26.25;56.83
17254;BME280;32542;52.832;13.816;2023-08-21T01:14:22;102100.97;;;26.23;56.83
17254;BME280;32542;52.832;13.816;2023-08-21T01:17:34;102098.19;;;26.24;56.71
17254;BME280;32542;52.832;13.816;2023-08-21T01:20:39;102096.53;;;26.22;56.75
17254;BME280;32542;52.832;13.816;2023-08-21T01:23:45;102091.31;;;26.19;56.70
17254;BME280;32542;52.832;13.816;2023-08-21T01:26:48;102091.31;;;26.19;56.80
17254;BME280;32542;52.832;13.816;2023-08-21T01:29:51;102094.94;;;26.18;56.80
17254;BME280;32542;52.832;13.816;2023-08-21T01:32:59;102089.56;;;26.18;56.54
17254;BME280;32542;52.832;13.816;2023-08-21T01:36:03;102098.59;;;26.17;56.30
17254;BME280;32542;52.832;13.816;2023-08-21T01:39:08;102099.53;;;26.16;56.42
17254;BME280;32542;52.832;13.816;2023-08-21T01:42:12;102090.66;;;26.14;56.37
17254;BME280;32542;52.832;13.816;2023-08-21T01:45:15;102087.09;;;26.13;56.19
17254;BME280;32542;52.832;13.816;2023-08-21T01:48:18;102084.50;;;26.12;56.20
17254;BME280;32542;52.832;13.816;2023-08-21T01:51:21;102087.28;;;26.10;56.38
17254;BME280;32542;52.832;13.816;2023-08-21T01:54:25;102081.97;;;26.09;56.41
17254;BME280;32542;52.832;13.816;2023-08-21T01:57:28;102078.44;;;26.08;56.21
17254;BME280;32542;52.832;13.816;2023-08-21T02:00:31;102082.94;;;26.08;56.13
17254;BME280;32542;52.832;13.816;2023-08-21T02:03:34;102084.78;;;26.06;56.13
17254;BME280;32542;52.832;13.816;2023-08-21T02:06:37;102083.91;;;26.05;56.03
17254;BME280;32542;52.832;13.816;2023-08-21T02:09:43;102081.31;;;26.04;56.07
17254;BME280;32542;52.832;13.816;2023-08-21T02:12:46;102086.66;;;26.04;55.98
17254;BME280;32542;52.832;13.816;2023-08-21T02:15:50;102082.22;;;26.03;55.84
17254;BME280;32542;52.832;13.816;2023-08-21T02:18:53;102081.34;;;26.02;55.72
17254;BME280;32542;52.832;13.816;2023-08-21T02:21:56;102091.31;;;26.00;55.78
17254;BME280;32542;52.832;13.816;2023-08-21T02:25:01;102088.63;;;26.00;55.70
17254;BME280;32542;52.832;13.816;2023-08-21T02:28:04;102081.59;;;25.98;55.60
17254;BME280;32542;52.832;13.816;2023-08-21T02:31:09;102084.44;;;25.95;55.63
17254;BME280;32542;52.832;13.816;2023-08-21T02:34:12;102089.09;;;25.91;55.69
17254;BME280;32542;52.832;13.816;2023-08-21T02:37:15;102083.84;;;25.88;55.61
17254;BME280;32542;52.832;13.816;2023-08-21T02:40:19;102088.44;;;25.86;55.68
17254;BME280;32542;52.832;13.816;2023-08-21T02:43:22;102094.69;;;25.87;55.73
17254;BME280;32542;52.832;13.816;2023-08-21T02:46:25;102090.19;;;25.87;55.80
17254;BME280;32542;52.832;13.816;2023-08-21T02:49:28;102090.31;;;25.84;55.91
17254;BME280;32542;52.832;13.816;2023-08-21T02:52:31;102093.22;;;25.80;56.05
17254;BME280;32542;52.832;13.816;2023-08-21T02:55:35;102088.81;;;25.79;56.12
17254;BME280;32542;52.832;13.816;2023-08-21T02:58:38;102099.69;;;25.76;56.02
17254;BME280;32542;52.832;13.816;2023-08-21T03:01:41;102096.91;;;25.77;56.10
17254;BME280;32542;52.832;13.816;2023-08-21T03:04:44;102096.13;;;25.75;56.12
17254;BME280;32542;52.832;13.816;2023-08-21T03:07:47;102095.41;;;25.72;56.27
17254;BME280;32542;52.832;13.816;2023-08-21T03:10:51;102086.38;;;25.73;56.31
17254;BME280;32542;52.832;13.816;2023-08-21T03:13:55;102095.22;;;25.75;56.21
17254;BME280;32542;52.832;13.816;2023-08-21T03:16:58;102098.88;;;25.74;56.15
17254;BME280;32542;52.832;13.816;2023-08-21T03:20:01;102094.44;;;25.73;56.35
17254;BME280;32542;52.832;13.816;2023-08-21T03:23:06;102105.25;;;25.71;56.44
17254;BME280;32542;52.832;13.816;2023-08-21T03:26:10;102092.81;;;25.70;56.46
17254;BME280;32542;52.832;13.816;2023-08-21T03:29:13;102095.41;;;25.72;56.40
17254;BME280;32542;52.832;13.816;2023-08-21T03:32:17;102098.16;;;25.70;56.30
17254;BME280;32542;52.832;13.816;2023-08-21T03:35:21;102083.00;;;25.69;56.49
17254;BME280;32542;52.832;13.816;2023-08-21T03:38:24;102082.91;;;25.71;56.43
17254;BME280;32542;52.832;13.816;2023-08-21T03:41:28;102076.69;;;25.70;56.43
17254;BME280;32542;52.832;13.816;2023-08-21T03:44:31;102073.13;;;25.70;56.38
17254;BME280;32542;52.832;13.816;2023-08-21T03:47:35;102073.22;;;25.68;56.43
17254;BME280;32542;52.832;13.816;2023-08-21T03:50:44;102071.47;;;25.67;56.42
17254;BME280;32542;52.832;13.816;2023-08-21T03:53:47;102076.84;;;25.67;56.43
17254;BME280;32542;52.832;13.816;2023-08-21T03:56:51;102081.19;;;25.70;56.41
17254;BME280;32542;52.832;13.816;2023-08-21T03:59:56;102088.28;;;25.71;56.39
17254;BME280;32542;52.832;13.816;2023-08-21T04:02:59;102082.06;;;25.70;56.38
17254;BME280;32542;52.832;13.816;2023-08-21T04:06:02;102085.59;;;25.71;56.40
17254;BME280;32542;52.832;13.816;2023-08-21T04:09:05;102088.28;;;25.71;56.36
17254;BME280;32542;52.832;13.816;2023-08-21T04:12:09;102090.03;;;25.72;56.53
17254;BME280;32542;52.832;13.816;2023-08-21T04:15:14;102090.97;;;25.71;56.28
17254;BME280;32542;52.832;13.816;2023-08-21T04:18:17;102092.84;;;25.69;56.35
17254;BME280;32542;52.832;13.816;2023-08-21T04:21:39;102095.47;;;25.70;56.33
17254;BME280;32542;52.832;13.816;2023-08-21T04:24:42;102096.31;;;25.71;56.29
17254;BME280;32542;52.832;13.816;2023-08-21T04:27:47;102107.16;;;25.69;56.24
17254;BME280;32542;52.832;13.816;2023-08-21T04:30:50;102098.31;;;25.67;56.25
17254;BME280;32542;52.832;13.816;2023-08-21T04:33:54;102094.72;;;25.67;56.22
17254;BME280;32542;52.832;13.816;2023-08-21T04:36:57;102101.91;;;25.66;56.25
17254;BME280;32542;52.832;13.816;2023-08-21T04:40:00;102103.75;;;25.66;56.26
17254;BME280;32542;52.832;13.816;2023-08-21T04:43:04;102102.94;;;25.64;56.25
17254;BME280;32542;52.832;13.816;2023-08-21T04:46:07;102111.94;;;25.63;56.32
17254;BME280;32542;52.832;13.816;2023-08-21T04:49:13;102103.09;;;25.61;56.37
17254;BME280;32542;52.832;13.816;2023-08-21T04:52:16;102104.97;;;25.59;56.36
17254;BME280;32542;52.832;13.816;2023-08-21T04:55:19;102105.97;;;25.56;56.52
17254;BME280;32542;52.832;13.816;2023-08-21T04:58:24;102106.78;;;25.58;56.52
17254;BME280;32542;52.832;13.816;2023-08-21T05:01:27;102106.78;;;25.58;56.42
17254;BME280;32542;52.832;13.816;2023-08-21T05:04:35;102113.03;;;25.59;56.45
17254;BME280;32542;52.832;13.816;2023-08-21T05:07:38;102121.06;;;25.59;56.55
17254;BME280;32542;52.832;13.816;2023-08-21T05:22:06;102156.16;;;25.54;56.71
17254;BME280;32542;52.832;13.816;2023-08-21T05:25:10;102149.06;;;25.53;56.67
17254;BME280;32542;52.832;13.816;2023-08-21T05:28:13;102150.88;;;25.52;56.94
17254;BME280;32542;52.832;13.816;2023-08-21T05:31:16;102152.66;;;25.52;56.96
17254;BME280;32542;52.832;13.816;2023-08-21T05:34:24;102150.94;;;25.51;57.07
17254;BME280;32542;52.832;13.816;2023-08-21T05:37:29;102155.44;;;25.50;57.05
17254;BME280;32542;52.832;13.816;2023-08-21T05:40:32;102156.31;;;25.51;57.11
17254;BME280;32542;52.832;13.816;2023-08-21T05:43:35;102151.78;;;25.51;57.06
17254;BME280;32542;52.832;13.816;2023-08-21T05:46:39;102151.78;;;25.51;57.21
17254;BME280;32542;52.832;13.816;2023-08-21T05:49:42;102154.44;;;25.53;57.22
17254;BME280;32542;52.832;13.816;2023-08-21T05:52:47;102152.66;;;25.52;57.21
17254;BME280;32542;52.832;13.816;2023-08-21T05:55:50;102153.56;;;25.52;57.27
17254;BME280;32542;52.832;13.816;2023-08-21T05:58:53;102162.47;;;25.53;57.34
17254;BME280;32542;52.832;13.816;2023-08-21T06:01:59;102165.16;;;25.53;57.33
17254;BME280;32542;52.832;13.816;2023-08-21T06:05:03;102165.19;;;25.51;57.49
17254;BME280;32542;52.832;13.816;2023-08-21T06:08:08;102159.84;;;25.51;57.49
17254;BME280;32542;52.832;13.816;2023-08-21T06:11:12;102161.69;;;25.51;57.41
17254;BME280;32542;52.832;13.816;2023-08-21T06:14:16;102161.59;;;25.52;57.62
17254;BME280;32542;52.832;13.816;2023-08-21T06:17:19;102155.44;;;25.50;57.72
17254;BME280;32542;52.832;13.816;2023-08-21T06:20:22;102158.13;;;25.50;57.73
17254;BME280;32542;52.832;13.816;2023-08-21T06:23:26;102159.03;;;25.49;57.86
17254;BME280;32542;52.832;13.816;2023-08-21T06:26:29;102154.63;;;25.48;57.94
17254;BME280;32542;52.832;13.816;2023-08-21T06:29:32;102161.72;;;25.49;57.95
17254;BME280;32542;52.832;13.816;2023-08-21T06:32:35;102156.34;;;25.49;58.02
17254;BME280;32542;52.832;13.816;2023-08-21T06:35:39;102150.06;;;25.50;58.01
17254;BME280;32542;52.832;13.816;2023-08-21T06:38:43;102154.56;;;25.50;58.24
17254;BME280;32542;52.832;13.816;2023-08-21T06:41:46;102154.56;;;25.50;58.31
17254;BME280;32542;52.832;13.816;2023-08-21T06:44:53;102160.78;;;25.50;58.11
17254;BME280;32542;52.832;13.816;2023-08-21T06:47:55;102155.44;;;25.50;58.50
17254;BME280;32542;52.832;13.816;2023-08-21T06:50:58;102162.53;;;25.51;58.37
17254;BME280;32542;52.832;13.816;2023-08-21T06:54:04;102161.59;;;25.52;58.79
17254;BME280;32542;52.832;13.816;2023-08-21T06:57:07;102158.91;;;25.52;58.87
17254;BME280;32542;52.832;13.816;2023-08-21T07:00:11;102160.63;;;25.53;58.69
17254;BME280;32542;52.832;13.816;2023-08-21T07:03:14;102155.28;;;25.53;58.84
17254;BME280;32542;52.832;13.816;2023-08-21T07:06:17;102149.97;;;25.52;59.14
17254;BME280;32542;52.832;13.816;2023-08-21T07:09:21;102153.56;;;25.52;59.05
17254;BME280;32542;52.832;13.816;2023-08-21T07:12:24;102152.66;;;25.52;58.86
17254;BME280;32542;52.832;13.816;2023-08-21T07:15:28;102157.16;;;25.51;58.70
17254;BME280;32542;52.832;13.816;2023-08-21T07:18:32;102155.44;;;25.50;58.78
17254;BME280;32542;52.832;13.816;2023-08-21T07:21:35;102158.13;;;25.50;58.75
17254;BME280;32542;52.832;13.816;2023-08-21T07:24:41;102160.78;;;25.50;59.00
17254;BME280;32542;52.832;13.816;2023-08-21T07:27:44;102160.78;;;25.50;58.66
17254;BME280;32542;52.832;13.816;2023-08-21T07:30:47;102154.47;;;25.51;58.71
17254;BME280;32542;52.832;13.816;2023-08-21T07:33:50;102152.66;;;25.52;58.79
17254;BME280;32542;52.832;13.816;2023-08-21T07:36:53;102152.66;;;25.52;58.70
17254;BME280;32542;52.832;13.816;2023-08-21T07:39:57;102149.91;;;25.53;58.64
17254;BME280;32542;52.832;13.816;2023-08-21T07:43:00;102158.75;;;25.55;59.00
17254;BME280;32542;52.832;13.816;2023-08-21T07:46:07;102157.03;;;25.54;59.05
17254;BME280;32542;52.832;13.816;2023-08-21T07:49:11;102157.03;;;25.54;58.98
17254;BME280;32542;52.832;13.816;2023-08-21T07:52:14;102167.75;;;25.54;59.06
17254;BME280;32542;52.832;13.816;2023-08-21T07:55:19;102167.75;;;25.54;58.90
17254;BME280;32542;52.832;13.816;2023-08-21T07:58:22;102170.44;;;25.54;58.88
17254;BME280;32542;52.832;13.816;2023-08-21T08:01:25;102170.38;;;25.56;58.96
17254;BME280;32542;52.832;13.816;2023-08-21T08:04:28;102165.88;;;25.57;58.99
17254;BME280;32542;52.832;13.816;2023-08-21T08:07:31;102157.84;;;25.57;58.82
17254;BME280;32542;52.832;13.816;2023-08-21T08:21:08;102162.09;;;25.61;59.48
17254;BME280;32542;52.832;13.816;2023-08-21T08:24:12;102163.88;;;25.62;59.44
17254;BME280;32542;52.832;13.816;2023-08-21T08:30:57;102165.59;;;25.63;58.94
17254;BME280;32542;52.832;13.816;2023-08-21T08:34:00;102157.63;;;25.61;58.74
17254;BME280;32542;52.832;13.816;2023-08-21T08:37:05;102164.78;;;25.61;58.54
17254;BME280;32542;52.832;13.816;2023-08-21T08:40:09;102165.75;;;25.60;58.55
17254;BME280;32542;52.832;13.816;2023-08-21T08:43:13;102168.34;;;25.61;58.47
17254;BME280;32542;52.832;13.816;2023-08-21T08:46:16;102172.84;;;25.61;58.43
17254;BME280;32542;52.832;13.816;2023-08-21T08:49:20;102169.22;;;25.62;58.28
17254;BME280;32542;52.832;13.816;2023-08-21T08:52:26;102177.28;;;25.62;58.25
17254;BME280;32542;52.832;13.816;2023-08-21T08:55:29;102164.72;;;25.62;58.32
17254;BME280;32542;52.832;13.816;2023-08-21T08:58:32;102173.63;;;25.63;58.24
17254;BME280;32542;52.832;13.816;2023-08-21T09:01:36;102166.47;;;25.63;57.77
17254;BME280;32542;52.832;13.816;2023-08-21T09:04:39;102170.97;;;25.63;57.12
17254;BME280;32542;52.832;13.816;2023-08-21T09:07:43;102169.22;;;25.62;57.08
17254;BME280;32542;52.832;13.816;2023-08-21T09:10:47;102167.47;;;25.61;57.21
17254;BME280;32542;52.832;13.816;2023-08-21T09:13:50;102162.09;;;25.61;57.48
17254;BME280;32542;52.832;13.816;2023-08-21T09:17:00;102157.53;;;25.63;56.52
17254;BME280;32542;52.832;13.816;2023-08-21T09:20:06;102149.56;;;25.61;56.56
17254;BME280;32542;52.832;13.816;2023-08-21T09:23:15;102154.84;;;25.63;55.69
17254;BME280;32542;52.832;13.816;2023-08-21T09:26:18;102155.81;;;25.62;55.47
17254;BME280;32542;52.832;13.816;2023-08-21T09:29:22;102157.69;;;25.60;54.95
17254;BME280;32542;52.832;13.816;2023-08-21T09:32:25;102158.53;;;25.60;54.39
17254;BME280;32542;52.832;13.816;2023-08-21T09:35:32;102147.03;;;25.58;54.80
17254;BME280;32542;52.832;13.816;2023-08-21T09:38:38;102151.53;;;25.58;54.59
17254;BME280;32542;52.832;13.816;2023-08-21T09:41:42;102150.69;;;25.55;53.47
17254;BME280;32542;52.832;13.816;2023-08-21T09:44:45;102151.66;;;25.54;53.23
17254;BME280;32542;52.832;13.816;2023-08-21T09:47:52;102148.09;;;25.54;53.85
17254;BME280;32542;52.832;13.816;2023-08-21T09:50:55;102146.28;;;25.54;52.95
17254;BME280;32542;52.832;13.816;2023-08-21T09:54:00;102141.81;;;25.55;50.06
17254;BME280;32542;52.832;13.816;2023-08-21T09:57:05;102146.28;;;25.54;50.01
17254;BME280;32542;52.832;13.816;2023-08-21T10:00:09;102141.81;;;25.55;49.01
17254;BME280;32542;52.832;13.816;2023-08-21T10:03:19;102137.28;;;25.55;49.40
17254;BME280;32542;52.832;13.816;2023-08-21T10:06:23;102136.50;;;25.53;49.21
17254;BME280;32542;52.832;13.816;2023-08-21T10:09:29;102137.44;;;25.52;50.13
17254;BME280;32542;52.832;13.816;2023-08-21T10:12:32;102133.81;;;25.53;49.98
17254;BME280;32542;52.832;13.816;2023-08-21T10:15:36;102143.63;;;25.54;49.43
17254;BME280;32542;52.832;13.816;2023-08-21T10:18:44;102138.25;;;25.54;49.53
17254;BME280;32542;52.832;13.816;2023-08-21T10:21:47;102129.31;;;25.54;49.73
17254;BME280;32542;52.832;13.816;2023-08-21T10:24:59;102133.81;;;25.53;49.80
17254;BME280;32542;52.832;13.816;2023-08-21T10:28:02;102134.56;;;25.57;48.86
17254;BME280;32542;52.832;13.816;2023-08-21T10:31:28;102134.56;;;25.57;48.80
17254;BME280;32542;52.832;13.816;2023-08-21T10:34:33;102125.63;;;25.57;48.77
17254;BME280;32542;52.832;13.816;2023-08-21T10:38:06;102129.19;;;25.57;49.48
17254;BME280;32542;52.832;13.816;2023-08-21T10:41:12;102120.19;;;25.58;49.00
17254;BME280;32542;52.832;13.816;2023-08-21T10:44:15;102129.84;;;25.62;48.00
17254;BME280;32542;52.832;13.816;2023-08-21T10:47:20;102128.09;;;25.61;47.63
17254;BME280;32542;52.832;13.816;2023-08-21T10:50:25;102130.78;;;25.61;47.69
17254;BME280;32542;52.832;13.816;2023-08-21T10:53:28;102133.56;;;25.60;47.70
17254;BME280;32542;52.832;13.816;2023-08-21T10:56:33;102131.66;;;25.62;48.05
17254;BME280;32542;52.832;13.816;2023-08-21T10:59:35;102130.72;;;25.63;47.82
17254;BME280;32542;52.832;13.816;2023-08-21T11:02:40;102138.75;;;25.63;47.85
17254;BME280;32542;52.832;13.816;2023-08-21T11:05:43;102141.38;;;25.64;47.90
17254;BME280;32542;52.832;13.816;2023-08-21T11:08:46;102140.44;;;25.65;47.69
17254;BME280;32542;52.832;13.816;2023-08-21T11:11:50;102136.88;;;25.65;47.39
17254;BME280;32542;52.832;13.816;2023-08-21T11:14:53;102149.38;;;25.66;48.04
17254;BME280;32542;52.832;13.816;2023-08-21T11:17:57;102138.56;;;25.67;47.94
17254;BME280;32542;52.832;13.816;2023-08-21T11:21:06;102141.94;;;25.71;47.21
17254;BME280;32542;52.832;13.816;2023-08-21T11:24:10;102145.59;;;25.70;46.94
17254;BME280;32542;52.832;13.816;2023-08-21T11:27:16;102158.13;;;25.69;47.03
17254;BME280;32542;52.832;13.816;2023-08-21T11:30:19;102152.84;;;25.68;47.12
17254;BME280;32542;52.832;13.816;2023-08-21T11:33:25;102139.47;;;25.66;47.21
17254;BME280;32542;52.832;13.816;2023-08-21T11:36:28;102149.28;;;25.67;47.29
17254;BME280;32542;52.832;13.816;2023-08-21T11:39:45;102146.59;;;25.67;47.32
17254;BME280;32542;52.832;13.816;2023-08-21T11:42:51;102144.78;;;25.68;47.33
17254;BME280;32542;52.832;13.816;2023-08-21T11:45:54;102143.03;;;25.67;47.68
17254;BME280;32542;52.832;13.816;2023-08-21T11:49:00;102137.63;;;25.68;47.52
17254;BME280;32542;52.832;13.816;2023-08-21T11:52:04;102133.97;;;25.69;47.86
17254;BME280;32542;52.832;13.816;2023-08-21T11:55:08;102137.53;;;25.70;47.73
17254;BME280;32542;52.832;13.816;2023-08-21T11:58:17;102134.84;;;25.70;47.44
17254;BME280;32542;52.832;13.816;2023-08-21T12:01:21;102128.53;;;25.71;47.43
17254;BME280;32542;52.832;13.816;2023-08-21T12:04:25;102125.84;;;25.71;47.52
17254;BME280;32542;52.832;13.816;2023-08-21T12:07:28;102132.97;;;25.72;47.69
17254;BME280;32542;52.832;13.816;2023-08-21T12:10:31;102126.59;;;25.74;47.71
17254;BME280;32542;52.832;13.816;2023-08-21T12:13:35;102128.31;;;25.75;47.37
17254;BME280;32542;52.832;13.816;2023-08-21T12:16:38;102116.56;;;25.78;47.39
17254;BME280;32542;52.832;13.816;2023-08-21T12:19:42;102120.13;;;25.78;47.68
17254;BME280;32542;52.832;13.816;2023-08-21T12:22:45;102113.81;;;25.79;47.96
17254;BME280;32542;52.832;13.816;2023-08-21T12:25:48;102121.81;;;25.81;47.35
17254;BME280;32542;52.832;13.816;2023-08-21T12:28:52;102120.84;;;25.82;46.52
17254;BME280;32542;52.832;13.816;2023-08-21T12:31:55;102114.41;;;25.86;45.33
17254;BME280;32542;52.832;13.816;2023-08-21T12:34:58;102128.78;;;25.85;45.06
17254;BME280;32542;52.832;13.816;2023-08-21T12:38:10;102120.72;;;25.85;45.04
17254;BME280;32542;52.832;13.816;2023-08-21T12:41:14;102117.16;;;25.84;44.69
17254;BME280;32542;52.832;13.816;2023-08-21T12:44:18;102113.69;;;25.82;45.12
17254;BME280;32542;52.832;13.816;2023-08-21T12:47:21;102118.09;;;25.83;45.08
17254;BME280;32542;52.832;13.816;2023-08-21T12:50:24;102118.03;;;25.85;44.76
17254;BME280;32542;52.832;13.816;2023-08-21T12:53:27;102118.03;;;25.85;44.76
17254;BME280;32542;52.832;13.816;2023-08-21T12:56:30;102110.91;;;25.84;45.01
17254;BME280;32542;52.832;13.816;2023-08-21T12:59:34;102118.03;;;25.85;45.54
17254;BME280;32542;52.832;13.816;2023-08-21T13:02:37;102115.28;;;25.86;45.16
17254;BME280;32542;52.832;13.816;2023-08-21T13:05:41;102115.28;;;25.86;45.18
17254;BME280;32542;52.832;13.816;2023-08-21T13:08:44;102119.75;;;25.86;45.54
17254;BME280;32542;52.832;13.816;2023-08-21T13:11:47;102115.28;;;25.86;45.81
17254;BME280;32542;52.832;13.816;2023-08-21T13:14:51;102116.84;;;25.90;45.29
17254;BME280;32542;52.832;13.816;2023-08-21T13:17:54;102121.34;;;25.90;45.44
17254;BME280;32542;52.832;13.816;2023-08-21T13:20:57;102130.38;;;25.89;45.38
17254;BME280;32542;52.832;13.816;2023-08-21T13:24:00;102119.63;;;25.89;45.40
17254;BME280;32542;52.832;13.816;2023-08-21T13:27:04;102119.63;;;25.89;45.52
17254;BME280;32542;52.832;13.816;2023-08-21T13:34:03;102113.47;;;25.87;45.94
17254;BME280;32542;52.832;13.816;2023-08-21T13:37:06;102115.13;;;25.89;46.05
17254;BME280;32542;52.832;13.816;2023-08-21T13:40:09;102112.38;;;25.91;45.64
17254;BME280;32542;52.832;13.816;2023-08-21T13:43:14;102104.31;;;25.91;45.48
17254;BME280;32542;52.832;13.816;2023-08-21T13:46:19;102108.72;;;25.92;45.46
17254;BME280;32542;52.832;13.816;2023-08-21T13:49:24;102110.63;;;25.90;45.98
17254;BME280;32542;52.832;13.816;2023-08-21T13:52:26;102105.19;;;25.91;45.69
17254;BME280;32542;52.832;13.816;2023-08-21T13:55:29;102097.97;;;25.92;46.04
17254;BME280;32542;52.832;13.816;2023-08-21T13:58:32;102096.25;;;25.91;46.15
17254;BME280;32542;52.832;13.816;2023-08-21T14:01:38;102098.88;;;25.92;46.21
17254;BME280;32542;52.832;13.816;2023-08-21T14:04:42;102089.94;;;25.92;46.22
17254;BME280;32542;52.832;13.816;2023-08-21T14:07:45;102100.63;;;25.93;46.28
17254;BME280;32542;52.832;13.816;2023-08-21T14:10:48;102082.69;;;25.94;46.39
17254;BME280;32542;52.832;13.816;2023-08-21T14:13:51;102088.03;;;25.94;46.46
17254;BME280;32542;52.832;13.816;2023-08-21T14:16:54;102080.78;;;25.96;46.17
17254;BME280;32542;52.832;13.816;2023-08-21T14:19:58;102086.16;;;25.96;46.46
17254;BME280;32542;52.832;13.816;2023-08-21T14:23:01;102094.94;;;25.99;46.24
17254;BME280;32542;52.832;13.816;2023-08-21T14:26:04;102091.38;;;25.99;46.09
17254;BME280;32542;52.832;13.816;2023-08-21T14:29:07;102085.09;;;26.00;45.96
17254;BME280;32542;52.832;13.816;2023-08-21T14:32:10;102087.69;;;26.01;46.16
17254;BME280;32542;52.832;13.816;2023-08-21T14:35:15;102077.81;;;26.02;46.04
17254;BME280;32542;52.832;13.816;2023-08-21T14:38:18;102082.31;;;26.01;45.66
17254;BME280;32542;52.832;13.816;2023-08-21T14:41:21;102080.50;;;26.02;45.58
17254;BME280;32542;52.832;13.816;2023-08-21T14:44:25;102071.50;;;26.03;45.13
17254;BME280;32542;52.832;13.816;2023-08-21T14:47:28;102067.09;;;26.02;44.78
17254;BME280;32542;52.832;13.816;2023-08-21T14:50:32;102071.50;;;26.03;45.23
17254;BME280;32542;52.832;13.816;2023-08-21T14:53:35;102077.66;;;26.05;45.22
17254;BME280;32542;52.832;13.816;2023-08-21T14:56:38;102068.66;;;26.06;45.00
17254;BME280;32542;52.832;13.816;2023-08-21T14:59:41;102072.19;;;26.08;44.44
17254;BME280;32542;52.832;13.816;2023-08-21T15:02:44;102063.31;;;26.06;44.61
17254;BME280;32542;52.832;13.816;2023-08-21T15:05:48;102061.53;;;26.05;44.66
17254;BME280;32542;52.832;13.816;2023-08-21T15:08:52;102057.94;;;26.06;44.59
17254;BME280;32542;52.832;13.816;2023-08-21T15:11:55;102058.78;;;26.06;44.72
17254;BME280;32542;52.832;13.816;2023-08-21T15:14:58;102052.47;;;26.07;44.55
17254;BME280;32542;52.832;13.816;2023-08-21T15:18:01;102052.47;;;26.07;44.83
17254;BME280;32542;52.832;13.816;2023-08-21T15:21:05;102051.59;;;26.07;45.01
17254;BME280;32542;52.832;13.816;2023-08-21T15:24:08;102046.13;;;26.10;45.30
17254;BME280;32542;52.832;13.816;2023-08-21T15:27:11;102051.31;;;26.13;45.06
17254;BME280;32542;52.832;13.816;2023-08-21T15:30:15;102046.75;;;26.15;45.11
17254;BME280;32542;52.832;13.816;2023-08-21T15:33:19;102047.56;;;26.17;44.95
17254;BME280;32542;52.832;13.816;2023-08-21T15:36:23;102049.19;;;26.19;45.01
17254;BME280;32542;52.832;13.816;2023-08-21T15:39:26;102053.72;;;26.19;45.30
17254;BME280;32542;52.832;13.816;2023-08-21T15:42:29;102047.41;;;26.20;45.30
17254;BME280;32542;52.832;13.816;2023-08-21T15:45:33;102051.84;;;26.21;45.16
17254;BME280;32542;52.832;13.816;2023-08-21T15:48:36;102038.41;;;26.21;45.21
17254;BME280;32542;52.832;13.816;2023-08-21T15:51:41;102041.88;;;26.23;45.25
17254;BME280;32542;52.832;13.816;2023-08-21T15:54:46;102051.66;;;26.24;45.08
17254;BME280;32542;52.832;13.816;2023-08-21T15:57:52;102041.88;;;26.23;45.08
17254;BME280;32542;52.832;13.816;2023-08-21T16:00:56;102042.66;;;26.25;45.06
17254;BME280;32542;52.832;13.816;2023-08-21T16:03:59;102042.66;;;26.25;44.85
17254;BME280;32542;52.832;13.816;2023-08-21T16:07:04;102044.47;;;26.24;44.70
17254;BME280;32542;52.832;13.816;2023-08-21T16:10:08;102040.03;;;26.23;44.86
17254;BME280;32542;52.832;13.816;2023-08-21T16:13:11;102036.41;;;26.24;44.70
17254;BME280;32542;52.832;13.816;2023-08-21T16:16:14;102035.47;;;26.25;44.37
17254;BME280;32542;52.832;13.816;2023-08-21T16:19:17;102027.41;;;26.25;44.19